sensor_id;sensor_type;location;lat;lon;timestamp;pressure;altitude;pressure_sealevel;temperature;humidity
30021;BME280;16861;52.294;7.760;2024-02-04T00:00:41;100335.38;;;11.32;84.95
30021;BME280;16861;52.294;7.760;2024-02-04T00:03:09;100339.81;;;11.31;84.99
30021;BME280;16861;52.294;7.760;2024-02-04T00:05:35;100339.75;;;11.33;85.30
30021;BME280;16861;52.294;7.760;2024-02-04T00:08:02;100347.53;;;11.34;85.07
30021;BME280;16861;52.294;7.760;2024-02-04T00:10:30;100350.09;;;11.36;84.95
30021;BME280;16861;52.294;7.760;2024-02-04T00:12:56;100344.84;;;11.36;84.89
30021;BME280;16861;52.294;7.760;2024-02-04T00:15:23;100348.34;;;11.37;84.89
30021;BME280;16861;52.294;7.760;2024-02-04T00:17:50;100345.69;;;11.37;85.06
30021;BME280;16861;52.294;7.760;2024-02-04T00:20:17;100339.41;;;11.39;84.94
30021;BME280;16861;52.294;7.760;2024-02-04T00:22:43;100332.38;;;11.40;85.17
30021;BME280;16861;52.294;7.760;2024-02-04T00:25:10;100327.94;;;11.40;85.33
30021;BME280;16861;52.294;7.760;2024-02-04T00:27:38;100321.66;;;11.43;85.09
30021;BME280;16861;52.294;7.760;2024-02-04T00:30:06;100322.50;;;11.43;85.12
30021;BME280;16861;52.294;7.760;2024-02-04T00:32:32;100320.75;;;11.44;85.08
30021;BME280;16861;52.294;7.760;2024-02-04T00:34:59;100315.47;;;11.44;84.79
30021;BME280;16861;52.294;7.760;2024-02-04T00:37:26;100311.03;;;11.44;84.80
30021;BME280;16861;52.294;7.760;2024-02-04T00:39:52;100313.75;;;11.43;84.76
30021;BME280;16861;52.294;7.760;2024-02-04T00:42:19;100309.41;;;11.42;84.65
30021;BME280;16861;52.294;7.760;2024-02-04T00:44:45;100302.38;;;11.42;84.85
30021;BME280;16861;52.294;7.760;2024-02-04T00:47:12;100300.66;;;11.41;84.80
30021;BME280;16861;52.294;7.760;2024-02-04T00:49:39;100291.97;;;11.39;84.86
30021;BME280;16861;52.294;7.760;2024-02-04T00:52:06;100296.47;;;11.37;85.13
30021;BME280;16861;52.294;7.760;2024-02-04T00:54:33;100306.16;;;11.37;84.96
30021;BME280;16861;52.294;7.760;2024-02-04T00:57:00;100303.69;;;11.33;85.27
30021;BME280;16861;52.294;7.760;2024-02-04T00:59:26;100307.19;;;11.34;85.50
30021;BME280;16861;52.294;7.760;2024-02-04T01:01:53;100300.09;;;11.34;85.81
30021;BME280;16861;52.294;7.760;2024-02-04T01:04:19;100309.75;;;11.36;85.99
30021;BME280;16861;52.294;7.760;2024-02-04T01:06:46;100310.56;;;11.36;85.84
30021;BME280;16861;52.294;7.760;2024-02-04T01:09:27;100304.38;;;11.37;85.95
30021;BME280;16861;52.294;7.760;2024-02-04T01:11:54;100312.19;;;11.39;85.94
30021;BME280;16861;52.294;7.760;2024-02-04T01:14:21;100311.28;;;11.40;86.12
30021;BME280;16861;52.294;7.760;2024-02-04T01:16:47;100306.78;;;11.42;86.11
30021;BME280;16861;52.294;7.760;2024-02-04T01:19:14;100311.03;;;11.44;86.08
30021;BME280;16861;52.294;7.760;2024-02-04T01:21:40;100314.53;;;11.45;86.02
30021;BME280;16861;52.294;7.760;2024-02-04T01:24:07;100311.88;;;11.45;86.25
30021;BME280;16861;52.294;7.760;2024-02-04T01:26:34;100313.59;;;11.46;85.88
30021;BME280;16861;52.294;7.760;2024-02-04T01:29:00;100319.66;;;11.48;85.94
30021;BME280;16861;52.294;7.760;2024-02-04T01:31:28;100320.41;;;11.50;85.97
30021;BME280;16861;52.294;7.760;2024-02-04T01:33:54;100318.72;;;11.49;85.94
30021;BME280;16861;52.294;7.760;2024-02-04T01:36:21;100321.19;;;11.52;85.98
30021;BME280;16861;52.294;7.760;2024-02-04T01:38:48;100318.56;;;11.52;85.77
30021;BME280;16861;52.294;7.760;2024-02-04T01:41:14;100313.28;;;11.52;85.70
30021;BME280;16861;52.294;7.760;2024-02-04T01:43:41;100305.28;;;11.54;85.65
30021;BME280;16861;52.294;7.760;2024-02-04T01:46:08;100301.81;;;11.53;85.60
30021;BME280;16861;52.294;7.760;2024-02-04T01:48:36;100287.69;;;11.54;85.53
30021;BME280;16861;52.294;7.760;2024-02-04T01:51:03;100301.72;;;11.55;85.47
30021;BME280;16861;52.294;7.760;2024-02-04T01:53:32;100315.81;;;11.54;85.43
30021;BME280;16861;52.294;7.760;2024-02-04T01:56:00;100307.06;;;11.53;85.46
30021;BME280;16861;52.294;7.760;2024-02-04T01:58:27;100310.53;;;11.54;85.28
30021;BME280;16861;52.294;7.760;2024-02-04T02:00:54;100315.94;;;11.52;85.33
30021;BME280;16861;52.294;7.760;2024-02-04T02:03:21;100307.16;;;11.52;85.26
30021;BME280;16861;52.294;7.760;2024-02-04T02:05:48;100305.53;;;11.49;85.31
30021;BME280;16861;52.294;7.760;2024-02-04T02:08:15;100308.25;;;11.47;85.17
30021;BME280;16861;52.294;7.760;2024-02-04T02:10:42;100299.47;;;11.47;85.02
30021;BME280;16861;52.294;7.760;2024-02-04T02:13:20;100282.97;;;11.43;84.31
30021;BME280;16861;52.294;7.760;2024-02-04T02:15:51;100284.75;;;11.43;84.54
30021;BME280;16861;52.294;7.760;2024-02-04T02:26:25;100274.75;;;11.32;84.69
30021;BME280;16861;52.294;7.760;2024-02-04T02:28:52;100273.13;;;11.29;84.57
30021;BME280;16861;52.294;7.760;2024-02-04T02:31:18;100273.31;;;11.26;84.82
30021;BME280;16861;52.294;7.760;2024-02-04T02:33:56;100264.63;;;11.24;85.09
30021;BME280;16861;52.294;7.760;2024-02-04T02:36:24;100265.56;;;11.23;85.20
30021;BME280;16861;52.294;7.760;2024-02-04T02:38:59;100258.66;;;11.20;84.96
30021;BME280;16861;52.294;7.760;2024-02-04T02:41:32;100256.88;;;11.21;85.16
30021;BME280;16861;52.294;7.760;2024-02-04T02:44:01;100246.31;;;11.21;85.08
30021;BME280;16861;52.294;7.760;2024-02-04T02:46:29;100248.22;;;11.19;84.74
30021;BME280;16861;52.294;7.760;2024-02-04T02:48:55;100248.28;;;11.17;84.50
30021;BME280;16861;52.294;7.760;2024-02-04T02:51:23;100251.94;;;11.15;84.38
30021;BME280;16861;52.294;7.760;2024-02-04T02:53:49;100247.66;;;11.12;84.15
30021;BME280;16861;52.294;7.760;2024-02-04T02:56:16;100246.13;;;11.08;83.82
30021;BME280;16861;52.294;7.760;2024-02-04T02:58:42;100248.97;;;11.03;83.79
30021;BME280;16861;52.294;7.760;2024-02-04T03:01:09;100242.16;;;10.99;84.07
30021;BME280;16861;52.294;7.760;2024-02-04T03:03:35;100247.59;;;10.96;84.45
30021;BME280;16861;52.294;7.760;2024-02-04T03:06:02;100248.63;;;10.93;84.73
30021;BME280;16861;52.294;7.760;2024-02-04T03:08:28;100242.50;;;10.93;84.97
30021;BME280;16861;52.294;7.760;2024-02-04T03:10:55;100244.34;;;10.91;84.86
30021;BME280;16861;52.294;7.760;2024-02-04T03:13:22;100249.59;;;10.91;84.88
30021;BME280;16861;52.294;7.760;2024-02-04T03:15:48;100247.91;;;10.90;85.16
30021;BME280;16861;52.294;7.760;2024-02-04T03:18:15;100238.31;;;10.89;85.32
30021;BME280;16861;52.294;7.760;2024-02-04T03:20:41;100246.22;;;10.89;85.61
30021;BME280;16861;52.294;7.760;2024-02-04T03:23:08;100233.78;;;10.91;85.84
30021;BME280;16861;52.294;7.760;2024-02-04T03:25:35;100240.78;;;10.92;85.92
30021;BME280;16861;52.294;7.760;2024-02-04T03:28:01;100229.25;;;10.94;86.06
30021;BME280;16861;52.294;7.760;2024-02-04T03:30:28;100230.06;;;10.95;86.15
30021;BME280;16861;52.294;7.760;2024-02-04T03:32:54;100228.22;;;10.97;85.98
30021;BME280;16861;52.294;7.760;2024-02-04T03:35:21;100231.63;;;10.99;85.95
30021;BME280;16861;52.294;7.760;2024-02-04T03:37:48;100235.97;;;11.00;85.73
30021;BME280;16861;52.294;7.760;2024-02-04T03:40:14;100236.75;;;11.02;85.73
30021;BME280;16861;52.294;7.760;2024-02-04T03:42:41;100234.97;;;11.03;85.72
30021;BME280;16861;52.294;7.760;2024-02-04T03:45:08;100230.47;;;11.05;85.69
30021;BME280;16861;52.294;7.760;2024-02-04T03:47:35;100236.59;;;11.05;85.85
30021;BME280;16861;52.294;7.760;2024-02-04T03:50:01;100243.56;;;11.06;85.83
30021;BME280;16861;52.294;7.760;2024-02-04T03:52:28;100234.66;;;11.09;85.83
30021;BME280;16861;52.294;7.760;2024-02-04T03:54:54;100244.16;;;11.12;85.86
30021;BME280;16861;52.294;7.760;2024-02-04T03:57:21;100254.63;;;11.13;85.76
30021;BME280;16861;52.294;7.760;2024-02-04T03:59:48;100245.78;;;11.14;85.55
30021;BME280;16861;52.294;7.760;2024-02-04T04:02:14;100246.66;;;11.15;85.22
30021;BME280;16861;52.294;7.760;2024-02-04T04:04:41;100239.50;;;11.17;85.21
30021;BME280;16861;52.294;7.760;2024-02-04T04:07:08;100220.22;;;11.16;85.08
30021;BME280;16861;52.294;7.760;2024-02-04T04:09:35;100239.63;;;11.15;83.56
30021;BME280;16861;52.294;7.760;2024-02-04T04:12:01;100239.50;;;11.17;84.67
30021;BME280;16861;52.294;7.760;2024-02-04T04:14:28;100220.22;;;11.16;84.36
30021;BME280;16861;52.294;7.760;2024-02-04T04:16:54;100236.97;;;11.15;84.26
30021;BME280;16861;52.294;7.760;2024-02-04T04:19:30;100223.88;;;11.14;83.89
30021;BME280;16861;52.294;7.760;2024-02-04T04:21:59;100232.69;;;11.13;83.84
30021;BME280;16861;52.294;7.760;2024-02-04T04:24:27;100243.22;;;11.13;83.74
30021;BME280;16861;52.294;7.760;2024-02-04T04:26:54;100244.97;;;11.14;83.92
30021;BME280;16861;52.294;7.760;2024-02-04T04:29:21;100251.25;;;11.11;83.55
30021;BME280;16861;52.294;7.760;2024-02-04T04:31:47;100250.47;;;11.09;83.46
30021;BME280;16861;52.294;7.760;2024-02-04T04:34:14;100241.72;;;11.08;83.35
30021;BME280;16861;52.294;7.760;2024-02-04T04:36:41;100251.38;;;11.08;83.68
30021;BME280;16861;52.294;7.760;2024-02-04T04:39:08;100247.00;;;11.08;83.63
30021;BME280;16861;52.294;7.760;2024-02-04T04:41:35;100246.13;;;11.08;83.29
30021;BME280;16861;52.294;7.760;2024-02-04T04:44:02;100244.50;;;11.05;83.50
30021;BME280;16861;52.294;7.760;2024-02-04T04:46:29;100241.88;;;11.05;83.73
30021;BME280;16861;52.294;7.760;2024-02-04T04:48:55;100241.88;;;11.05;83.61
30021;BME280;16861;52.294;7.760;2024-02-04T04:51:24;100250.72;;;11.04;83.05
30021;BME280;16861;52.294;7.760;2024-02-04T04:53:51;100241.06;;;11.03;83.09
30021;BME280;16861;52.294;7.760;2024-02-04T04:56:17;100242.00;;;11.02;82.94
30021;BME280;16861;52.294;7.760;2024-02-04T04:58:44;100247.34;;;11.01;83.01
30021;BME280;16861;52.294;7.760;2024-02-04T05:01:10;100245.72;;;10.98;82.63
30021;BME280;16861;52.294;7.760;2024-02-04T05:03:37;100252.00;;;10.95;82.17
30021;BME280;16861;52.294;7.760;2024-02-04T05:06:04;100263.56;;;10.93;82.79
30021;BME280;16861;52.294;7.760;2024-02-04T05:08:31;100250.47;;;10.91;82.91
30021;BME280;16861;52.294;7.760;2024-02-04T05:10:57;100236.53;;;10.89;82.72
30021;BME280;16861;52.294;7.760;2024-02-04T05:13:24;100252.34;;;10.89;82.79
30021;BME280;16861;52.294;7.760;2024-02-04T05:15:50;100247.13;;;10.88;82.75
30021;BME280;16861;52.294;7.760;2024-02-04T05:18:17;100249.84;;;10.86;82.66
30021;BME280;16861;52.294;7.760;2024-02-04T05:20:43;100246.34;;;10.86;83.05
30021;BME280;16861;52.294;7.760;2024-02-04T05:23:10;100243.91;;;10.82;82.37
30021;BME280;16861;52.294;7.760;2024-02-04T05:25:37;100236.91;;;10.81;82.61
30021;BME280;16861;52.294;7.760;2024-02-04T05:28:04;100215.06;;;10.79;82.32
30021;BME280;16861;52.294;7.760;2024-02-04T05:30:30;100209.94;;;10.76;81.88
30021;BME280;16861;52.294;7.760;2024-02-04T05:32:57;100206.56;;;10.74;81.84
30021;BME280;16861;52.294;7.760;2024-02-04T05:35:23;100207.63;;;10.70;81.66
30021;BME280;16861;52.294;7.760;2024-02-04T05:37:50;100216.44;;;10.69;81.86
30021;BME280;16861;52.294;7.760;2024-02-04T05:40:17;100222.66;;;10.68;81.86
30021;BME280;16861;52.294;7.760;2024-02-04T05:42:45;100221.81;;;10.67;81.78
30021;BME280;16861;52.294;7.760;2024-02-04T05:45:12;100225.47;;;10.65;81.95
30021;BME280;16861;52.294;7.760;2024-02-04T05:47:39;100203.53;;;10.64;81.46
30021;BME280;16861;52.294;7.760;2024-02-04T05:50:06;100200.97;;;10.63;81.47
30021;BME280;16861;52.294;7.760;2024-02-04T05:52:33;100187.88;;;10.61;81.10
30021;BME280;16861;52.294;7.760;2024-02-04T05:55:00;100192.38;;;10.59;81.19
30021;BME280;16861;52.294;7.760;2024-02-04T05:57:30;100188.13;;;10.57;80.92
30021;BME280;16861;52.294;7.760;2024-02-04T05:59:57;100195.31;;;10.53;80.87
30021;BME280;16861;52.294;7.760;2024-02-04T06:02:26;100204.13;;;10.52;81.02
30021;BME280;16861;52.294;7.760;2024-02-04T06:04:53;100199.88;;;10.49;81.05
30021;BME280;16861;52.294;7.760;2024-02-04T06:07:20;100206.97;;;10.47;81.20
30021;BME280;16861;52.294;7.760;2024-02-04T06:09:46;100208.78;;;10.47;81.15
30021;BME280;16861;52.294;7.760;2024-02-04T06:12:13;100189.56;;;10.45;81.05
30021;BME280;16861;52.294;7.760;2024-02-04T06:14:40;100204.53;;;10.44;81.03
30021;BME280;16861;52.294;7.760;2024-02-04T06:17:06;100200.13;;;10.43;81.49
30021;BME280;16861;52.294;7.760;2024-02-04T06:19:34;100193.06;;;10.45;81.36
30021;BME280;16861;52.294;7.760;2024-02-04T06:22:01;100194.84;;;10.45;81.15
30021;BME280;16861;52.294;7.760;2024-02-04T06:24:28;100193.06;;;10.45;81.02
30021;BME280;16861;52.294;7.760;2024-02-04T06:26:55;100181.72;;;10.43;81.06
30021;BME280;16861;52.294;7.760;2024-02-04T06:29:22;100164.16;;;10.43;80.67
30021;BME280;16861;52.294;7.760;2024-02-04T06:31:48;100156.34;;;10.42;80.36
30021;BME280;16861;52.294;7.760;2024-02-04T06:34:15;100152.94;;;10.40;80.00
30021;BME280;16861;52.294;7.760;2024-02-04T06:36:42;100152.94;;;10.40;80.21
30021;BME280;16861;52.294;7.760;2024-02-04T06:39:11;100158.13;;;10.41;80.61
30021;BME280;16861;52.294;7.760;2024-02-04T06:41:37;100169.56;;;10.40;80.21
30021;BME280;16861;52.294;7.760;2024-02-04T06:44:04;100173.13;;;10.39;80.14
30021;BME280;16861;52.294;7.760;2024-02-04T06:46:30;100176.63;;;10.40;80.22
30021;BME280;16861;52.294;7.760;2024-02-04T06:48:57;100187.16;;;10.40;80.16
30021;BME280;16861;52.294;7.760;2024-02-04T06:51:24;100191.47;;;10.41;80.31
30021;BME280;16861;52.294;7.760;2024-02-04T06:53:51;100194.97;;;10.41;80.13
30021;BME280;16861;52.294;7.760;2024-02-04T06:56:17;100202.00;;;10.41;79.98
30021;BME280;16861;52.294;7.760;2024-02-04T06:58:44;100188.84;;;10.41;79.94
30021;BME280;16861;52.294;7.760;2024-02-04T07:01:11;100193.34;;;10.39;79.27
30021;BME280;16861;52.294;7.760;2024-02-04T07:03:38;100191.47;;;10.41;79.71
30021;BME280;16861;52.294;7.760;2024-02-04T07:06:05;100194.97;;;10.41;79.80
30021;BME280;16861;52.294;7.760;2024-02-04T07:08:32;100180.00;;;10.42;79.59
30021;BME280;16861;52.294;7.760;2024-02-04T07:10:59;100184.44;;;10.41;79.16
30021;BME280;16861;52.294;7.760;2024-02-04T07:13:26;100180.00;;;10.42;79.42
30021;BME280;16861;52.294;7.760;2024-02-04T07:15:52;100177.47;;;10.40;78.95
30021;BME280;16861;52.294;7.760;2024-02-04T07:18:20;100194.97;;;10.41;79.33
30021;BME280;16861;52.294;7.760;2024-02-04T07:20:48;100176.63;;;10.40;78.61
30021;BME280;16861;52.294;7.760;2024-02-04T07:23:15;100181.03;;;10.39;79.24
30021;BME280;16861;52.294;7.760;2024-02-04T07:25:42;100187.16;;;10.40;79.33
30021;BME280;16861;52.294;7.760;2024-02-04T07:28:09;100190.72;;;10.39;79.23
30021;BME280;16861;52.294;7.760;2024-02-04T07:30:35;100188.84;;;10.41;78.86
30021;BME280;16861;52.294;7.760;2024-02-04T07:33:02;100170.56;;;10.38;78.34
30021;BME280;16861;52.294;7.760;2024-02-04T07:35:29;100177.63;;;10.37;78.60
30021;BME280;16861;52.294;7.760;2024-02-04T07:37:55;100188.16;;;10.37;78.31
30021;BME280;16861;52.294;7.760;2024-02-04T07:40:24;100196.13;;;10.36;78.00
30021;BME280;16861;52.294;7.760;2024-02-04T07:42:50;100194.44;;;10.35;78.17
30021;BME280;16861;52.294;7.760;2024-02-04T07:45:17;100192.63;;;10.35;78.29
30021;BME280;16861;52.294;7.760;2024-02-04T07:47:44;100195.25;;;10.35;78.41
30021;BME280;16861;52.294;7.760;2024-02-04T07:50:11;100189.16;;;10.35;78.58
30021;BME280;16861;52.294;7.760;2024-02-04T07:52:37;100183.03;;;10.34;78.15
30021;BME280;16861;52.294;7.760;2024-02-04T07:55:08;100163.69;;;10.35;77.94
30021;BME280;16861;52.294;7.760;2024-02-04T07:57:34;100177.78;;;10.34;78.10
30021;BME280;16861;52.294;7.760;2024-02-04T08:00:01;100183.97;;;10.33;78.02
30021;BME280;16861;52.294;7.760;2024-02-04T08:02:31;100181.34;;;10.33;77.82
30021;BME280;16861;52.294;7.760;2024-02-04T08:04:58;100174.34;;;10.32;78.03
30021;BME280;16861;52.294;7.760;2024-02-04T08:07:24;100174.34;;;10.32;78.08
30021;BME280;16861;52.294;7.760;2024-02-04T08:09:51;100162.13;;;10.31;78.08
30021;BME280;16861;52.294;7.760;2024-02-04T08:12:18;100177.16;;;10.29;77.49
30021;BME280;16861;52.294;7.760;2024-02-04T08:14:45;100179.78;;;10.29;76.75
30021;BME280;16861;52.294;7.760;2024-02-04T08:17:11;100168.41;;;10.28;77.79
30021;BME280;16861;52.294;7.760;2024-02-04T08:19:38;100164.06;;;10.27;77.83
30021;BME280;16861;52.294;7.760;2024-02-04T08:22:05;100161.44;;;10.27;77.91
30021;BME280;16861;52.294;7.760;2024-02-04T08:24:33;100161.44;;;10.27;77.87
30021;BME280;16861;52.294;7.760;2024-02-04T08:27:00;100161.44;;;10.27;77.88
30021;BME280;16861;52.294;7.760;2024-02-04T08:29:26;100158.81;;;10.27;77.20
30021;BME280;16861;52.294;7.760;2024-02-04T08:31:53;100156.16;;;10.27;77.25
30021;BME280;16861;52.294;7.760;2024-02-04T08:34:19;100153.53;;;10.27;77.21
30021;BME280;16861;52.294;7.760;2024-02-04T08:36:48;100152.59;;;10.28;77.43
30021;BME280;16861;52.294;7.760;2024-02-04T08:39:14;100157.03;;;10.28;77.42
30021;BME280;16861;52.294;7.760;2024-02-04T08:41:41;100154.31;;;10.29;77.49
30021;BME280;16861;52.294;7.760;2024-02-04T08:44:08;100153.41;;;10.30;77.64
30021;BME280;16861;52.294;7.760;2024-02-04T08:46:38;100152.47;;;10.32;77.69
30021;BME280;16861;52.294;7.760;2024-02-04T08:49:05;100162.13;;;10.31;77.36
30021;BME280;16861;52.294;7.760;2024-02-04T08:51:31;100162.13;;;10.31;76.74
30021;BME280;16861;52.294;7.760;2024-02-04T08:53:58;100153.28;;;10.32;77.18
30021;BME280;16861;52.294;7.760;2024-02-04T08:56:25;100138.31;;;10.34;77.39
30021;BME280;16861;52.294;7.760;2024-02-04T08:58:52;100146.94;;;10.36;77.50
30021;BME280;16861;52.294;7.760;2024-02-04T09:01:19;100141.63;;;10.38;77.49
30021;BME280;16861;52.294;7.760;2024-02-04T09:03:46;100135.34;;;10.40;77.59
30021;BME280;16861;52.294;7.760;2024-02-04T09:06:12;100133.50;;;10.42;77.44
30021;BME280;16861;52.294;7.760;2024-02-04T09:08:39;100128.13;;;10.46;77.36
30021;BME280;16861;52.294;7.760;2024-02-04T09:11:05;100132.31;;;10.50;77.63
30021;BME280;16861;52.294;7.760;2024-02-04T09:13:32;100137.41;;;10.53;77.11
30021;BME280;16861;52.294;7.760;2024-02-04T09:15:59;100134.63;;;10.56;76.71
30021;BME280;16861;52.294;7.760;2024-02-04T09:18:26;100129.13;;;10.61;77.22
30021;BME280;16861;52.294;7.760;2024-02-04T09:20:52;100129.75;;;10.66;77.23
30021;BME280;16861;52.294;7.760;2024-02-04T09:23:19;100133.91;;;10.70;76.94
30021;BME280;16861;52.294;7.760;2024-02-04T09:25:46;100135.47;;;10.74;76.78
30021;BME280;16861;52.294;7.760;2024-02-04T09:28:12;100127.22;;;10.80;76.78
30021;BME280;16861;52.294;7.760;2024-02-04T09:30:39;100131.50;;;10.83;76.25
30021;BME280;16861;52.294;7.760;2024-02-04T09:33:05;100133.91;;;10.88;76.42
30021;BME280;16861;52.294;7.760;2024-02-04T09:35:33;100138.91;;;10.92;76.76
30021;BME280;16861;52.294;7.760;2024-02-04T09:37:59;100139.53;;;10.98;76.90
30021;BME280;16861;52.294;7.760;2024-02-04T09:40:26;100131.44;;;11.01;76.67
30021;BME280;16861;52.294;7.760;2024-02-04T09:42:53;100133.00;;;11.05;76.95
30021;BME280;16861;52.294;7.760;2024-02-04T09:45:20;100131.97;;;11.07;76.02
30021;BME280;16861;52.294;7.760;2024-02-04T09:47:49;100139.72;;;11.11;75.08
30021;BME280;16861;52.294;7.760;2024-02-04T09:50:16;100132.50;;;11.14;76.02
30021;BME280;16861;52.294;7.760;2024-02-04T09:52:50;100145.59;;;11.16;74.25
30021;BME280;16861;52.294;7.760;2024-02-04T09:55:19;100146.19;;;11.21;76.16
30021;BME280;16861;52.294;7.760;2024-02-04T09:57:47;100153.00;;;11.25;76.62
30021;BME280;16861;52.294;7.760;2024-02-04T10:00:20;100156.41;;;11.27;75.02
30021;BME280;16861;52.294;7.760;2024-02-04T10:02:48;100160.53;;;11.33;76.37
30021;BME280;16861;52.294;7.760;2024-02-04T10:05:15;100144.59;;;11.34;76.27
30021;BME280;16861;52.294;7.760;2024-02-04T10:07:42;100136.63;;;11.36;74.47
30021;BME280;16861;52.294;7.760;2024-02-04T10:10:09;100137.31;;;11.40;76.01
30021;BME280;16861;52.294;7.760;2024-02-04T10:12:36;100142.50;;;11.41;76.10
30021;BME280;16861;52.294;7.760;2024-02-04T10:15:05;100133.59;;;11.44;75.50
30021;BME280;16861;52.294;7.760;2024-02-04T10:17:32;100140.47;;;11.46;75.48
30021;BME280;16861;52.294;7.760;2024-02-04T10:20:00;100137.75;;;11.48;75.36
30021;BME280;16861;52.294;7.760;2024-02-04T10:22:27;100152.63;;;11.49;75.44
30021;BME280;16861;52.294;7.760;2024-02-04T10:25:09;100154.47;;;11.47;73.18
30021;BME280;16861;52.294;7.760;2024-02-04T10:27:38;100148.97;;;11.52;75.68
30021;BME280;16861;52.294;7.760;2024-02-04T10:30:06;100154.25;;;11.52;75.48
30021;BME280;16861;52.294;7.760;2024-02-04T10:32:34;100156.00;;;11.51;75.24
30021;BME280;16861;52.294;7.760;2024-02-04T10:35:00;100158.66;;;11.51;75.64
30021;BME280;16861;52.294;7.760;2024-02-04T10:37:28;100157.91;;;11.49;75.38
30021;BME280;16861;52.294;7.760;2024-02-04T10:39:56;100153.56;;;11.48;75.51
30021;BME280;16861;52.294;7.760;2024-02-04T10:42:24;100163.31;;;11.46;75.23
30021;BME280;16861;52.294;7.760;2024-02-04T10:44:53;100150.22;;;11.44;75.05
30021;BME280;16861;52.294;7.760;2024-02-04T10:47:29;100140.78;;;11.40;74.04
30021;BME280;16861;52.294;7.760;2024-02-04T10:49:58;100142.41;;;11.43;75.33
30021;BME280;16861;52.294;7.760;2024-02-04T10:52:27;100147.66;;;11.43;75.98
30021;BME280;16861;52.294;7.760;2024-02-04T10:54:54;100152.88;;;11.44;76.50
30021;BME280;16861;52.294;7.760;2024-02-04T10:57:22;100147.50;;;11.46;76.92
30021;BME280;16861;52.294;7.760;2024-02-04T10:59:53;100143.03;;;11.48;77.03
30021;BME280;16861;52.294;7.760;2024-02-04T11:02:20;100138.50;;;11.50;76.94
30021;BME280;16861;52.294;7.760;2024-02-04T11:04:48;100138.44;;;11.52;76.26
30021;BME280;16861;52.294;7.760;2024-02-04T11:07:17;100163.78;;;11.54;76.40
30021;BME280;16861;52.294;7.760;2024-02-04T11:09:46;100149.66;;;11.55;75.84
30021;BME280;16861;52.294;7.760;2024-02-04T11:12:18;100148.69;;;11.56;75.98
30021;BME280;16861;52.294;7.760;2024-02-04T11:14:47;100151.34;;;11.56;75.91
30021;BME280;16861;52.294;7.760;2024-02-04T11:23:18;100140.28;;;11.50;74.03
30021;BME280;16861;52.294;7.760;2024-02-04T11:25:56;100134.16;;;11.49;74.84
30021;BME280;16861;52.294;7.760;2024-02-04T11:28:25;100134.94;;;11.51;76.67
30021;BME280;16861;52.294;7.760;2024-02-04T11:30:53;100127.00;;;11.51;76.90
30021;BME280;16861;52.294;7.760;2024-02-04T11:33:23;100121.00;;;11.49;75.80
30021;BME280;16861;52.294;7.760;2024-02-04T11:38:37;100125.31;;;11.50;76.31
30021;BME280;16861;52.294;7.760;2024-02-04T11:41:04;100125.31;;;11.50;77.61
30021;BME280;16861;52.294;7.760;2024-02-04T11:43:34;100114.78;;;11.50;76.64
30021;BME280;16861;52.294;7.760;2024-02-04T11:46:03;100111.13;;;11.53;77.92
30021;BME280;16861;52.294;7.760;2024-02-04T11:48:32;100103.22;;;11.53;77.82
30021;BME280;16861;52.294;7.760;2024-02-04T11:50:59;100096.09;;;11.55;78.05
30021;BME280;16861;52.294;7.760;2024-02-04T11:53:28;100079.31;;;11.56;78.26
30021;BME280;16861;52.294;7.760;2024-02-04T11:56:00;100089.78;;;11.57;77.96
30021;BME280;16861;52.294;7.760;2024-02-04T11:58:30;100083.56;;;11.58;77.61
30021;BME280;16861;52.294;7.760;2024-02-04T12:00:58;100086.78;;;11.64;78.88
30021;BME280;16861;52.294;7.760;2024-02-04T12:03:32;100082.53;;;11.61;77.29
30021;BME280;16861;52.294;7.760;2024-02-04T12:06:00;100077.84;;;11.66;78.60
30021;BME280;16861;52.294;7.760;2024-02-04T12:08:29;100086.63;;;11.67;78.31
30021;BME280;16861;52.294;7.760;2024-02-04T12:10:56;100089.19;;;11.68;78.58
30021;BME280;16861;52.294;7.760;2024-02-04T12:13:24;100084.75;;;11.69;78.56
30021;BME280;16861;52.294;7.760;2024-02-04T12:15:51;100082.03;;;11.70;78.86
30021;BME280;16861;52.294;7.760;2024-02-04T12:18:17;100080.25;;;11.71;78.79
30021;BME280;16861;52.294;7.760;2024-02-04T12:20:47;100069.69;;;11.71;78.67
30021;BME280;16861;52.294;7.760;2024-02-04T12:23:18;100067.06;;;11.71;78.60
30021;BME280;16861;52.294;7.760;2024-02-04T12:25:45;100066.03;;;11.73;78.85
30021;BME280;16861;52.294;7.760;2024-02-04T12:28:13;100059.91;;;11.73;78.57
30021;BME280;16861;52.294;7.760;2024-02-04T12:30:40;100046.53;;;11.76;79.21
30021;BME280;16861;52.294;7.760;2024-02-04T12:33:06;100045.69;;;11.76;79.30
30021;BME280;16861;52.294;7.760;2024-02-04T12:35:35;100049.00;;;11.79;79.35
30021;BME280;16861;52.294;7.760;2024-02-04T12:38:01;100044.47;;;11.81;79.27
30021;BME280;16861;52.294;7.760;2024-02-04T12:40:30;100061.09;;;11.83;79.46
30021;BME280;16861;52.294;7.760;2024-02-04T12:42:59;100023.97;;;11.86;79.47
30021;BME280;16861;52.294;7.760;2024-02-04T12:45:31;100046.59;;;11.91;79.61
30021;BME280;16861;52.294;7.760;2024-02-04T12:47:58;100037.56;;;11.95;79.70
30021;BME280;16861;52.294;7.760;2024-02-04T12:50:25;100042.66;;;11.98;79.48
30021;BME280;16861;52.294;7.760;2024-02-04T12:53:06;100054.16;;;11.97;76.12
30021;BME280;16861;52.294;7.760;2024-02-04T12:55:34;100054.66;;;12.04;78.61
30021;BME280;16861;52.294;7.760;2024-02-04T12:58:13;100071.31;;;12.04;74.72
30021;BME280;16861;52.294;7.760;2024-02-04T13:00:43;100045.44;;;12.11;78.17
30021;BME280;16861;52.294;7.760;2024-02-04T13:03:10;100062.91;;;12.14;77.49
30021;BME280;16861;52.294;7.760;2024-02-04T13:05:37;100079.50;;;12.16;77.05
30021;BME280;16861;52.294;7.760;2024-02-04T13:08:04;100056.53;;;12.18;76.85